Time;durP1;ratioP1;P1;durP2;ratioP2;P2;SDS_P1;SDS_P2;PMS_P1;PMS_P2;Temp;Humidity;BMP_temperature;BMP_pressure;BME280_temperature;BME280_humidity;BME280_pressure;Samples;Min_cycle;Max_cycle;Signal;HPM_P1;HPM_P2
2022/03/24 00:01:54;;;;;;;82.63;47.00;;;9.20;91.40;;;;;;5072688;28;20454;-57
2022/03/24 00:04:20;;;;;;;79.20;45.58;;;9.30;91.30;;;;;;5072622;28;20024;-57
2022/03/24 00:06:46;;;;;;;82.32;47.60;;;9.30;91.70;;;;;;5072679;28;20024;-57
2022/03/24 00:09:11;;;;;;;76.70;46.60;;;9.30;92.40;;;;;;5072224;28;20048;-57
2022/03/24 00:11:38;;;;;;;81.85;45.80;;;9.20;92.80;;;;;;5072489;28;20059;-57
2022/03/24 00:14:04;;;;;;;78.82;45.85;;;9.10;92.90;;;;;;5072227;28;20079;-57
2022/03/24 00:16:30;;;;;;;83.30;46.10;;;9.10;92.80;;;;;;5072277;28;20547;-57
2022/03/24 00:18:56;;;;;;;78.43;46.33;;;9.00;93.50;;;;;;5071407;28;20108;-57
2022/03/24 00:21:24;;;;;;;85.32;47.92;;;9.00;93.70;;;;;;5072294;28;20374;-57
2022/03/24 00:23:50;;;;;;;83.40;47.67;;;9.20;93.40;;;;;;5072108;28;20025;-57
2022/03/24 00:26:16;;;;;;;79.63;46.35;;;9.30;92.70;;;;;;5071935;28;20218;-57
2022/03/24 00:28:42;;;;;;;85.88;47.17;;;9.40;92.50;;;;;;5072222;28;20036;-57
2022/03/24 00:31:09;;;;;;;84.30;47.67;;;9.30;92.40;;;;;;5071816;28;20028;-57
2022/03/24 00:33:36;;;;;;;83.85;48.15;;;9.40;92.40;;;;;;5071750;28;20316;-57
2022/03/24 00:36:03;;;;;;;87.05;48.80;;;9.40;92.20;;;;;;5071542;28;20028;-57
2022/03/24 00:38:29;;;;;;;84.90;48.00;;;9.40;92.00;;;;;;5071967;28;20020;-57
2022/03/24 00:40:55;;;;;;;95.10;49.50;;;9.40;91.90;;;;;;5072183;28;20029;-57
2022/03/24 00:43:22;;;;;;;99.20;52.22;;;9.50;91.40;;;;;;5072634;28;20385;-57
2022/03/24 00:45:48;;;;;;;91.00;51.38;;;9.60;90.60;;;;;;5072374;28;20480;-57
2022/03/24 00:48:14;;;;;;;82.18;48.15;;;9.70;89.90;;;;;;5072422;28;20489;-57
2022/03/24 00:50:40;;;;;;;84.15;47.63;;;9.80;89.20;;;;;;5070992;28;20081;-57
2022/03/24 00:53:05;;;;;;;81.43;46.42;;;9.90;88.50;;;;;;5071845;28;20013;-57
2022/03/24 00:55:31;;;;;;;79.88;46.25;;;10.00;88.20;;;;;;5071335;28;20086;-57
2022/03/24 00:57:57;;;;;;;82.55;47.47;;;10.00;88.00;;;;;;5072046;28;20282;-57
2022/03/24 01:00:25;;;;;;;88.15;49.17;;;10.00;89.10;;;;;;5071617;28;20386;-57
2022/03/24 01:02:52;;;;;;;83.22;47.83;;;9.90;90.30;;;;;;5071194;28;20060;-57
2022/03/24 01:05:19;;;;;;;82.03;48.00;;;9.80;90.80;;;;;;5071177;28;20483;-57
2022/03/24 01:07:46;;;;;;;85.35;48.28;;;9.70;91.00;;;;;;5071443;28;20526;-57
2022/03/24 01:10:15;;;;;;;83.88;47.40;;;9.60;91.00;;;;;;5071253;28;20024;-57
2022/03/24 01:12:42;;;;;;;81.57;47.08;;;9.50;90.90;;;;;;5071317;28;20028;-57
2022/03/24 01:15:14;;;;;;;77.22;47.40;;;9.40;91.80;;;;;;5071201;28;20028;-57
2022/03/24 01:17:40;;;;;;;84.68;47.45;;;9.10;93.30;;;;;;5069763;28;20070;-57
2022/03/24 01:20:07;;;;;;;81.85;47.45;;;9.00;93.10;;;;;;5070093;28;20115;-57
2022/03/24 01:22:33;;;;;;;83.38;48.15;;;8.90;93.60;;;;;;5070720;28;20032;-57
2022/03/24 01:24:59;;;;;;;81.03;48.58;;;8.80;94.10;;;;;;5070654;28;20059;-57
2022/03/24 01:27:27;;;;;;;76.25;47.65;;;8.50;95.30;;;;;;5071090;28;20571;-57
2022/03/24 01:29:57;;;;;;;82.10;47.92;;;8.60;95.50;;;;;;5070885;28;20412;-57
2022/03/24 01:32:26;;;;;;;82.15;50.63;;;8.50;95.90;;;;;;5071066;28;20107;-57
2022/03/24 01:34:52;;;;;;;86.53;48.97;;;8.20;96.50;;;;;;5071063;28;20017;-57
2022/03/24 01:37:18;;;;;;;84.53;50.00;;;8.00;97.30;;;;;;5071027;28;20028;-57
2022/03/24 01:39:43;;;;;;;94.05;51.85;;;7.90;97.90;;;;;;5070938;28;20474;-57
2022/03/24 01:42:09;;;;;;;87.95;49.72;;;7.90;97.70;;;;;;5071288;28;20076;-57
2022/03/24 01:44:35;;;;;;;85.28;50.15;;;7.90;97.70;;;;;;5071019;28;20039;-57
2022/03/24 01:47:06;;;;;;;93.30;52.50;;;7.90;98.10;;;;;;5070535;28;20048;-57
2022/03/24 01:49:35;;;;;;;95.57;53.15;;;8.00;98.10;;;;;;5070499;28;20021;-57
2022/03/24 01:52:00;;;;;;;89.18;52.03;;;8.00;98.20;;;;;;5070432;28;20428;-57
2022/03/24 01:54:30;;;;;;;89.03;51.78;;;8.00;98.30;;;;;;5070298;28;20085;-57
2022/03/24 01:56:57;;;;;;;91.30;52.40;;;8.20;98.40;;;;;;5070569;28;20024;-57
2022/03/24 01:59:24;;;;;;;89.55;51.30;;;8.30;98.00;;;;;;5070438;28;20027;-57
2022/03/24 02:01:50;;;;;;;92.13;51.70;;;8.20;98.00;;;;;;5070058;28;20535;-57
2022/03/24 02:04:16;;;;;;;94.70;51.97;;;8.20;97.90;;;;;;5070613;28;20557;-57
2022/03/24 02:06:42;;;;;;;84.65;50.33;;;8.30;98.20;;;;;;5071154;28;20478;-57
2022/03/24 02:09:08;;;;;;;86.97;50.05;;;8.30;97.90;;;;;;5071473;28;20049;-57
2022/03/24 02:11:34;;;;;;;85.80;50.70;;;8.30;98.10;;;;;;5070987;28;20036;-57
2022/03/24 02:14:01;;;;;;;92.72;50.90;;;8.20;98.50;;;;;;5071043;28;20018;-57
2022/03/24 02:16:38;;;;;;;93.20;51.35;;;8.10;98.60;;;;;;5070461;28;20024;-57
2022/03/24 02:19:13;;;;;;;91.05;51.53;;;8.20;98.70;;;;;;5070428;28;20497;-57
2022/03/24 02:21:40;;;;;;;90.78;50.55;;;8.10;98.80;;;;;;5070128;28;20052;-57
2022/03/24 02:24:07;;;;;;;95.05;50.80;;;8.10;98.60;;;;;;5070220;28;20097;-57
2022/03/24 02:26:35;;;;;;;93.95;50.80;;;8.30;98.00;;;;;;5069871;28;20441;-57
2022/03/24 02:29:06;;;;;;;88.47;48.65;;;8.30;98.00;;;;;;5070131;28;20029;-57
2022/03/24 02:31:37;;;;;;;94.25;50.92;;;8.40;97.60;;;;;;5069914;28;20021;-57
2022/03/24 02:36:48;;;;;;;89.68;50.50;;;8.40;97.80;;;;;;5069914;28;20032;-57
2022/03/24 02:39:14;;;;;;;88.28;49.70;;;8.40;97.50;;;;;;5069734;28;20029;-57
2022/03/24 02:41:54;;;;;;;89.13;47.75;;;8.30;98.00;;;;;;5070313;28;20483;-57
2022/03/24 02:44:28;;;;;;;81.72;48.17;;;8.00;99.20;;;;;;5073740;28;20043;-57
2022/03/24 02:46:55;;;;;;;83.70;48.08;;;8.00;99.50;;;;;;5074482;28;20251;-58
2022/03/24 02:49:26;;;;;;;82.40;47.63;;;7.80;99.90;;;;;;5073020;28;20574;-57
2022/03/24 02:51:53;;;;;;;79.80;48.30;;;7.70;99.90;;;;;;5074420;28;20070;-57
2022/03/24 02:54:20;;;;;;;82.70;48.15;;;7.50;99.90;;;;;;5072251;28;20475;-57
2022/03/24 02:56:46;;;;;;;81.53;46.35;;;7.40;99.90;;;;;;5073850;28;20490;-57
2022/03/24 02:59:13;;;;;;;82.00;47.17;;;7.40;99.90;;;;;;5074223;28;20390;-57
2022/03/24 03:01:45;;;;;;;79.00;45.42;;;7.40;99.90;;;;;;5074389;28;20025;-57
2022/03/24 03:04:12;;;;;;;80.80;47.78;;;7.20;99.90;;;;;;5074376;28;20029;-57
2022/03/24 03:06:38;;;;;;;83.72;48.03;;;7.10;99.90;;;;;;5074378;28;20033;-57
2022/03/24 03:09:05;;;;;;;81.63;47.10;;;6.90;99.90;;;;;;5074809;28;20230;-57
2022/03/24 03:11:33;;;;;;;83.95;48.88;;;6.90;99.90;;;;;;5074697;28;20024;-57
2022/03/24 03:14:00;;;;;;;84.10;50.50;;;6.80;99.90;;;;;;5074328;28;20453;-57
2022/03/24 03:16:26;;;;;;;82.88;48.90;;;6.90;99.90;;;;;;5074247;28;20021;-57
2022/03/24 03:18:53;;;;;;;85.60;48.17;;;6.90;99.90;;;;;;5074332;28;20024;-57
2022/03/24 03:21:20;;;;;;;86.57;48.85;;;6.80;99.90;;;;;;5073985;28;20111;-57
2022/03/24 03:23:45;;;;;;;87.95;49.72;;;6.80;99.90;;;;;;5074167;28;20032;-57
2022/03/24 03:26:12;;;;;;;82.18;48.78;;;6.80;99.90;;;;;;5074518;28;20024;-57
2022/03/24 03:28:39;;;;;;;86.32;49.92;;;6.80;99.90;;;;;;5073464;28;20036;-57
2022/03/24 03:31:05;;;;;;;89.35;50.25;;;6.90;99.90;;;;;;5073238;28;20020;-57
2022/03/24 03:33:36;;;;;;;83.97;48.80;;;7.00;99.90;;;;;;5071735;28;20435;-57
2022/03/24 03:36:05;;;;;;;86.57;49.53;;;6.90;99.90;;;;;;5073567;28;20020;-58
2022/03/24 03:38:32;;;;;;;84.97;48.55;;;6.90;99.90;;;;;;5074496;28;20025;-58
2022/03/24 03:40:58;;;;;;;91.15;50.20;;;6.90;99.90;;;;;;5072899;28;20028;-57
2022/03/24 03:43:23;;;;;;;85.65;48.70;;;6.70;99.90;;;;;;5072472;28;20579;-57
2022/03/24 03:45:50;;;;;;;88.53;50.10;;;6.60;99.90;;;;;;5072662;28;20028;-57
2022/03/24 03:48:15;;;;;;;93.97;52.38;;;6.50;99.90;;;;;;5074070;28;20028;-57
2022/03/24 03:50:41;;;;;;;90.85;52.00;;;6.60;99.90;;;;;;5073379;28;20474;-57
2022/03/24 03:53:08;;;;;;;95.13;53.03;;;6.70;99.90;;;;;;5072432;28;20424;-57
2022/03/24 03:55:35;;;;;;;92.38;50.35;;;6.70;99.90;;;;;;5072546;28;20406;-57
2022/03/24 03:58:01;;;;;;;97.50;52.63;;;6.60;99.90;;;;;;5073050;28;20012;-57
2022/03/24 04:03:11;;;;;;;91.97;51.47;;;6.60;99.90;;;;;;5072753;28;20069;-57
2022/03/24 04:05:37;;;;;;;97.30;51.60;;;6.60;99.90;;;;;;5073129;28;20528;-57
2022/03/24 04:08:03;;;;;;;93.00;52.13;;;6.50;99.90;;;;;;5072025;28;20049;-57
2022/03/24 04:10:30;;;;;;;95.78;52.75;;;6.40;99.90;;;;;;5073186;28;20044;-57
2022/03/24 04:12:57;;;;;;;98.95;52.70;;;6.40;99.90;;;;;;5072191;28;20444;-57
2022/03/24 04:15:24;;;;;;;96.43;53.75;;;6.40;99.90;;;;;;5072581;28;20025;-57
2022/03/24 04:17:50;;;;;;;94.50;52.33;;;6.50;99.90;;;;;;5072920;28;20032;-57
2022/03/24 04:20:20;;;;;;;95.50;52.38;;;6.70;99.90;;;;;;5072574;28;20037;-57
2022/03/24 04:22:48;;;;;;;90.88;52.28;;;6.70;99.90;;;;;;5072366;28;20105;-57
2022/03/24 04:25:14;;;;;;;92.90;51.08;;;6.70;99.90;;;;;;5072719;28;20032;-57
2022/03/24 04:27:40;;;;;;;96.18;52.60;;;6.50;99.90;;;;;;5072696;28;20035;-57
2022/03/24 04:30:07;;;;;;;88.72;52.40;;;6.40;99.90;;;;;;5071986;28;20020;-58
2022/03/24 04:32:33;;;;;;;88.20;51.28;;;6.30;99.90;;;;;;5072210;28;20031;-57
2022/03/24 04:34:58;;;;;;;97.88;52.30;;;6.10;99.90;;;;;;5072083;28;20024;-57
2022/03/24 04:37:25;;;;;;;91.85;52.90;;;6.10;99.90;;;;;;5071822;28;20023;-57
2022/03/24 04:39:51;;;;;;;95.53;53.72;;;6.10;99.90;;;;;;5071753;28;20023;-57
2022/03/24 04:42:17;;;;;;;100.50;53.58;;;6.20;99.90;;;;;;5072269;28;20025;-57
2022/03/24 04:44:42;;;;;;;92.32;52.33;;;6.20;99.90;;;;;;5071774;28;20032;-57
2022/03/24 04:47:08;;;;;;;88.57;51.45;;;6.10;99.90;;;;;;5072134;28;20090;-57
2022/03/24 04:49:34;;;;;;;96.47;50.88;;;6.10;99.90;;;;;;5072315;28;20020;-58
2022/03/24 04:52:00;;;;;;;94.35;51.40;;;6.10;99.90;;;;;;5072354;28;20032;-57
2022/03/24 04:54:25;;;;;;;89.18;49.90;;;6.20;99.90;;;;;;5072165;28;20473;-57
2022/03/24 04:56:51;;;;;;;92.30;52.17;;;6.10;99.90;;;;;;5071606;28;20340;-57
2022/03/24 04:59:17;;;;;;;92.18;51.13;;;6.10;99.90;;;;;;5071548;28;20028;-57
2022/03/24 05:01:43;;;;;;;90.05;51.45;;;6.00;99.90;;;;;;5071176;28;20021;-57
2022/03/24 05:04:08;;;;;;;97.65;51.75;;;6.00;99.90;;;;;;5069849;28;20017;-57
2022/03/24 05:06:34;;;;;;;98.25;53.03;;;6.00;99.90;;;;;;5069681;28;20074;-57
2022/03/24 05:09:00;;;;;;;89.60;50.95;;;6.00;99.90;;;;;;5071893;28;20501;-58
2022/03/24 05:11:26;;;;;;;91.90;51.63;;;5.90;99.90;;;;;;5071083;28;20112;-57
2022/03/24 05:13:54;;;;;;;86.28;50.60;;;5.80;99.90;;;;;;5070927;28;20021;-57
2022/03/24 05:16:20;;;;;;;104.13;51.85;;;5.80;99.90;;;;;;5070939;28;20024;-57
2022/03/24 05:18:46;;;;;;;91.07;51.03;;;5.80;99.90;;;;;;5071328;28;20363;-57
2022/03/24 05:21:12;;;;;;;96.70;51.35;;;5.80;99.90;;;;;;5071285;28;20526;-57
2022/03/24 05:23:38;;;;;;;97.30;52.40;;;5.70;99.90;;;;;;5071000;28;20032;-57
2022/03/24 05:26:03;;;;;;;96.15;53.13;;;5.70;99.90;;;;;;5071518;28;20165;-57
2022/03/24 05:28:29;;;;;;;97.93;52.08;;;5.50;99.90;;;;;;5070678;28;20459;-57
2022/03/24 05:30:55;;;;;;;95.20;52.30;;;5.50;99.90;;;;;;5070957;28;20040;-57
2022/03/24 05:33:20;;;;;;;95.55;52.88;;;5.50;99.90;;;;;;5071100;28;20031;-57
2022/03/24 05:35:46;;;;;;;97.60;53.30;;;5.40;99.90;;;;;;5086216;28;20525;-57
2022/03/24 05:38:12;;;;;;;129.82;56.70;;;5.40;99.90;;;;;;5071414;28;20039;-57
2022/03/24 05:40:38;;;;;;;108.28;54.20;;;5.40;99.90;;;;;;5071864;28;20037;-57
2022/03/24 05:43:04;;;;;;;107.47;51.40;;;5.50;99.90;;;;;;5071994;28;20048;-57
2022/03/24 05:45:30;;;;;;;95.72;52.10;;;5.50;99.90;;;;;;5071433;28;20028;-57
2022/03/24 05:47:56;;;;;;;101.25;52.88;;;5.50;99.90;;;;;;5070774;28;20029;-57
2022/03/24 05:50:24;;;;;;;94.45;52.55;;;5.60;99.90;;;;;;5069371;28;20040;-57
2022/03/24 05:52:50;;;;;;;99.88;52.22;;;5.80;99.90;;;;;;5071222;28;20409;-57
2022/03/24 05:55:19;;;;;;;99.00;53.40;;;5.80;99.90;;;;;;5071081;28;20025;-57
2022/03/24 05:57:44;;;;;;;103.63;52.67;;;5.80;99.90;;;;;;5070342;28;20477;-57
2022/03/24 06:00:11;;;;;;;108.65;53.83;;;5.80;99.90;;;;;;5070338;28;20035;-57
2022/03/24 06:02:37;;;;;;;95.78;51.65;;;5.80;99.90;;;;;;5070407;28;20036;-57
2022/03/24 06:05:05;;;;;;;100.78;51.88;;;5.70;99.90;;;;;;5070552;28;20085;-57
2022/03/24 06:07:33;;;;;;;105.47;53.85;;;5.70;99.90;;;;;;5070679;28;20033;-57
2022/03/24 06:09:58;;;;;;;97.55;53.70;;;5.80;99.90;;;;;;5070771;28;20036;-57
2022/03/24 06:12:25;;;;;;;97.85;52.33;;;5.60;99.90;;;;;;5070820;28;20017;-57
2022/03/24 06:14:51;;;;;;;97.75;54.00;;;5.70;99.90;;;;;;5070257;28;20100;-57
2022/03/24 06:17:18;;;;;;;100.25;52.63;;;5.80;99.90;;;;;;5069791;28;20028;-57
2022/03/24 06:19:45;;;;;;;106.32;52.70;;;5.90;99.90;;;;;;5070448;28;20024;-57
2022/03/24 06:22:12;;;;;;;106.25;54.08;;;5.90;99.90;;;;;;5069843;28;20429;-57
2022/03/24 06:24:38;;;;;;;106.65;52.40;;;6.10;99.90;;;;;;5070477;28;20082;-58
2022/03/24 06:27:03;;;;;;;105.43;52.78;;;6.20;99.90;;;;;;5070812;28;20279;-57
2022/03/24 06:29:29;;;;;;;105.82;52.97;;;6.40;99.90;;;;;;5070223;28;20049;-57
2022/03/24 06:31:55;;;;;;;108.63;53.20;;;6.50;99.90;;;;;;5069927;28;20117;-57
2022/03/24 06:34:21;;;;;;;98.65;54.45;;;6.70;99.90;;;;;;5068642;28;20056;-57
2022/03/24 06:36:46;;;;;;;108.75;54.35;;;6.70;99.90;;;;;;5089646;28;20031;-57
2022/03/24 06:39:12;;;;;;;100.63;53.22;;;6.70;99.90;;;;;;5090191;28;20028;-57
2022/03/24 06:41:38;;;;;;;100.28;51.88;;;6.70;99.90;;;;;;5088278;28;20039;-56
2022/03/24 06:44:06;;;;;;;102.80;54.80;;;6.70;99.90;;;;;;5070441;28;20039;-58
2022/03/24 06:46:33;;;;;;;105.70;53.17;;;6.80;99.90;;;;;;5070618;28;20042;-58
2022/03/24 06:49:00;;;;;;;96.07;54.55;;;7.00;99.90;;;;;;5070139;28;20508;-57
2022/03/24 06:51:26;;;;;;;98.03;53.42;;;7.10;99.90;;;;;;5069065;28;20565;-57
2022/03/24 06:53:51;;;;;;;94.13;52.03;;;7.20;99.90;;;;;;5069135;28;20115;-57
2022/03/24 06:56:17;;;;;;;105.65;54.22;;;7.40;99.90;;;;;;5084513;28;20115;-58
2022/03/24 06:58:43;;;;;;;102.60;54.55;;;7.60;99.90;;;;;;5083828;28;20155;-58
2022/03/24 07:01:10;;;;;;;127.25;54.80;;;7.80;99.90;;;;;;5071629;28;20561;-57
2022/03/24 07:03:36;;;;;;;123.32;54.20;;;8.00;99.90;;;;;;5071928;28;20051;-57
2022/03/24 07:06:04;;;;;;;100.22;54.60;;;8.20;99.90;;;;;;5077020;28;20021;-57
2022/03/24 07:08:30;;;;;;;111.60;53.50;;;8.60;99.90;;;;;;5070500;28;20028;-57
2022/03/24 07:10:55;;;;;;;109.68;55.08;;;8.80;99.90;;;;;;5073816;28;20512;-57
2022/03/24 07:13:21;;;;;;;118.32;55.67;;;9.10;99.90;;;;;;5069235;28;20031;-57
2022/03/24 07:15:47;;;;;;;117.03;55.03;;;9.30;99.90;;;;;;5068659;28;20033;-57
2022/03/24 07:18:16;;;;;;;104.15;53.67;;;9.30;99.90;;;;;;5083563;28;20024;-56
2022/03/24 07:20:42;;;;;;;105.35;53.97;;;9.30;99.90;;;;;;5073566;28;20028;-58
2022/03/24 07:23:09;;;;;;;105.30;54.10;;;9.40;99.90;;;;;;5072411;28;20031;-57
2022/03/24 07:25:36;;;;;;;102.28;53.45;;;9.60;99.90;;;;;;5069618;28;20024;-57
2022/03/24 07:28:05;;;;;;;105.15;54.58;;;9.90;99.90;;;;;;5072278;28;20079;-58
2022/03/24 07:30:31;;;;;;;99.22;54.38;;;10.10;99.90;;;;;;5074047;28;20028;-57
2022/03/24 07:32:59;;;;;;;98.13;54.15;;;10.50;99.90;;;;;;5073202;28;20039;-58
2022/03/24 07:35:25;;;;;;;102.03;56.15;;;10.80;99.90;;;;;;5069785;28;20032;-57
2022/03/24 07:37:51;;;;;;;104.10;54.83;;;11.10;99.90;;;;;;5074400;28;20037;-57
2022/03/24 07:40:18;;;;;;;95.72;54.85;;;11.20;99.90;;;;;;5073328;28;20028;-58
2022/03/24 07:42:49;;;;;;;86.72;53.03;;;11.20;99.90;;;;;;5070182;28;20044;-58
2022/03/24 07:45:15;;;;;;;95.03;53.65;;;11.30;99.90;;;;;;5068145;28;20035;-57
2022/03/24 07:48:10;;;;;;;88.63;52.72;;;11.40;99.90;;;;;;5068946;28;20036;-58
2022/03/24 07:50:38;;;;;;;89.50;52.70;;;11.60;99.90;;;;;;5069068;28;20039;-58
2022/03/24 07:53:17;;;;;;;81.53;52.17;;;11.80;99.90;;;;;;5074652;28;20077;-58
2022/03/24 07:55:45;;;;;;;82.95;51.92;;;11.90;99.90;;;;;;5072987;28;20440;-58
2022/03/24 07:58:17;;;;;;;80.55;51.33;;;12.40;99.90;;;;;;5067449;28;20020;-58
2022/03/24 08:00:43;;;;;;;87.00;52.53;;;13.70;99.90;;;;;;5070807;28;20055;-58
2022/03/24 08:03:10;;;;;;;85.47;53.60;;;15.30;95.90;;;;;;5075042;28;20344;-60
2022/03/24 08:05:36;;;;;;;88.20;54.90;;;17.10;93.90;;;;;;5067426;28;20032;-59
2022/03/24 08:08:04;;;;;;;73.32;52.63;;;18.40;88.60;;;;;;5068943;28;20092;-59
2022/03/24 08:10:30;;;;;;;69.05;50.85;;;19.50;86.50;;;;;;5073975;28;20513;-60
2022/03/24 08:12:55;;;;;;;72.03;52.00;;;20.70;82.50;;;;;;5070074;28;20342;-60
2022/03/24 08:15:21;;;;;;;68.47;51.47;;;21.50;79.00;;;;;;5070260;28;20246;-60
2022/03/24 08:17:47;;;;;;;77.20;52.08;;;22.30;77.50;;;;;;5070782;28;20028;-60
2022/03/24 08:20:13;;;;;;;72.07;51.95;;;22.50;74.50;;;;;;5072841;28;20052;-60
2022/03/24 08:22:38;;;;;;;72.75;53.63;;;23.00;70.80;;;;;;5073532;28;20111;-60
2022/03/24 08:25:08;;;;;;;81.32;54.10;;;23.10;68.30;;;;;;5071309;28;20036;-60
2022/03/24 08:27:34;;;;;;;78.00;53.65;;;22.50;67.10;;;;;;5072788;28;20070;-60
2022/03/24 08:30:00;;;;;;;68.15;51.72;;;23.20;64.70;;;;;;5067675;28;20132;-60
2022/03/24 08:32:26;;;;;;;70.18;52.60;;;23.10;63.90;;;;;;5067632;28;20103;-60
2022/03/24 08:34:52;;;;;;;78.15;54.78;;;23.70;62.20;;;;;;5072726;28;20060;-60
2022/03/24 08:37:17;;;;;;;75.03;53.65;;;24.40;60.00;;;;;;5073565;28;20024;-60
2022/03/24 08:39:43;;;;;;;69.07;53.28;;;24.50;58.50;;;;;;5070902;28;20115;-60
2022/03/24 08:42:09;;;;;;;72.90;54.00;;;25.00;56.70;;;;;;5071107;28;20037;-60
2022/03/24 08:44:34;;;;;;;72.05;53.45;;;25.00;55.90;;;;;;5074360;28;20078;-60
2022/03/24 08:47:00;;;;;;;74.93;55.05;;;24.50;56.70;;;;;;5072201;28;20478;-60
2022/03/24 08:49:26;;;;;;;69.22;53.38;;;24.50;56.60;;;;;;5073291;28;20033;-60
2022/03/24 08:51:51;;;;;;;73.97;54.40;;;24.20;56.20;;;;;;5077235;28;20032;-61
2022/03/24 08:54:17;;;;;;;69.60;54.22;;;23.90;57.30;;;;;;5072022;28;20032;-61
2022/03/24 08:56:43;;;;;;;82.93;56.70;;;24.50;56.90;;;;;;5073349;28;20443;-61
2022/03/24 08:59:09;;;;;;;73.97;56.55;;;24.50;54.60;;;;;;5078299;28;20412;-61
2022/03/24 09:01:34;;;;;;;75.65;55.92;;;23.80;55.60;;;;;;5070477;28;20093;-61
2022/03/24 09:04:00;;;;;;;77.68;56.92;;;24.40;55.10;;;;;;5071562;28;20547;-61
2022/03/24 09:06:26;;;;;;;74.05;55.03;;;24.90;53.30;;;;;;5072494;28;20084;-61
2022/03/24 09:08:53;;;;;;;76.53;54.97;;;24.60;54.00;;;;;;5074296;28;20046;-61
2022/03/24 09:11:18;;;;;;;73.97;53.75;;;24.40;53.50;;;;;;5072208;28;20128;-61
2022/03/24 09:13:44;;;;;;;73.60;54.13;;;23.70;52.70;;;;;;5065885;28;20133;-61
2022/03/24 09:16:11;;;;;;;72.20;54.17;;;24.00;53.30;;;;;;5070544;28;20316;-61
2022/03/24 09:18:37;;;;;;;78.15;53.58;;;25.00;51.70;;;;;;5070445;28;20112;-61
2022/03/24 09:21:03;;;;;;;71.82;52.47;;;24.70;51.40;;;;;;5070040;28;20448;-61
2022/03/24 09:23:29;;;;;;;76.25;53.08;;;24.90;51.80;;;;;;5069862;28;20032;-61
2022/03/24 09:25:56;;;;;;;74.97;50.85;;;25.10;50.50;;;;;;5069324;28;20547;-61
2022/03/24 09:28:24;;;;;;;66.70;51.50;;;23.90;51.30;;;;;;5071654;28;20515;-61
2022/03/24 09:30:50;;;;;;;69.50;50.47;;;23.70;51.10;;;;;;5068439;28;20085;-61
2022/03/24 09:33:17;;;;;;;71.60;51.17;;;23.40;52.10;;;;;;5064990;28;20024;-61
2022/03/24 09:35:43;;;;;;;68.97;51.05;;;23.30;51.50;;;;;;5066077;28;20016;-61
2022/03/24 09:38:08;;;;;;;68.40;50.00;;;23.60;50.60;;;;;;5069609;28;20547;-61
2022/03/24 09:40:34;;;;;;;71.38;53.20;;;24.10;50.20;;;;;;5065665;28;20431;-61
2022/03/24 09:43:02;;;;;;;74.63;53.20;;;24.40;50.90;;;;;;5072135;28;20041;-61
2022/03/24 09:45:28;;;;;;;66.40;51.45;;;24.90;49.70;;;;;;5070125;28;20070;-61
2022/03/24 09:47:53;;;;;;;69.72;52.90;;;25.10;48.70;;;;;;5068842;28;20362;-61
2022/03/24 09:50:22;;;;;;;67.75;52.30;;;24.60;48.60;;;;;;5066603;28;20032;-61
2022/03/24 09:52:49;;;;;;;70.40;51.25;;;23.80;50.80;;;;;;5065618;28;20046;-61
2022/03/24 09:55:16;;;;;;;68.88;52.13;;;23.90;50.90;;;;;;5069614;28;20024;-61
2022/03/24 09:57:43;;;;;;;66.10;49.90;;;23.80;50.50;;;;;;5069950;28;20040;-61
2022/03/24 10:00:10;;;;;;;63.58;45.20;;;23.80;49.40;;;;;;5065171;28;20177;-61
2022/03/24 10:02:36;;;;;;;63.67;44.30;;;24.10;48.30;;;;;;5079931;28;20385;-61
2022/03/24 10:05:02;;;;;;;54.58;41.03;;;24.10;47.20;;;;;;5068946;28;20032;-61
2022/03/24 10:07:44;;;;;;;55.63;40.60;;;24.30;47.50;;;;;;5080424;28;20413;-61
2022/03/24 10:10:25;;;;;;;53.38;39.90;;;24.10;47.60;;;;;;5067941;28;20441;-61
2022/03/24 10:12:51;;;;;;;48.28;37.47;;;23.90;48.80;;;;;;5065573;28;20046;-60
2022/03/24 10:15:17;;;;;;;48.35;34.45;;;23.70;48.50;;;;;;5065947;28;20112;-61
2022/03/24 10:17:56;;;;;;;51.75;33.60;;;23.70;47.60;;;;;;5067508;28;20028;-58
2022/03/24 10:20:26;;;;;;;55.13;37.63;;;23.80;46.50;;;;;;5063333;28;21566;-60
2022/03/24 10:22:59;;;;;;;58.38;37.75;;;23.80;47.40;;;;;;5064912;28;20497;-59
2022/03/24 10:25:33;;;;;;;47.75;34.38;;;24.20;47.50;;;;;;5067087;28;20186;-59
2022/03/24 10:28:08;;;;;;;43.92;32.83;;;24.50;46.60;;;;;;5067896;28;20205;-60
2022/03/24 10:30:52;;;;;;;44.65;32.53;;;25.30;46.30;;;;;;5068198;28;20116;-59
2022/03/24 10:33:31;;;;;;;44.33;32.20;;;25.30;44.70;;;;;;5060100;28;20093;-61
2022/03/24 10:36:20;;;;;;;39.90;30.42;;;25.20;45.10;;;;;;5070605;28;20393;-60
2022/03/24 10:38:48;;;;;;;41.63;29.38;;;24.60;45.80;;;;;;5080320;28;20123;-61
2022/03/24 10:41:15;;;;;;;43.22;30.30;;;24.10;47.00;;;;;;5062645;28;20089;-60
2022/03/24 10:43:40;;;;;;;45.17;28.95;;;23.90;47.10;;;;;;5064862;28;20485;-60
2022/03/24 10:46:14;;;;;;;33.20;26.73;;;24.20;46.80;;;;;;5066387;28;20035;-60
2022/03/24 10:48:40;;;;;;;38.03;29.38;;;24.30;45.70;;;;;;5065173;28;20050;-60
2022/03/24 10:51:06;;;;;;;41.45;28.92;;;24.00;47.10;;;;;;5069724;28;20039;-61
2022/03/24 10:53:42;;;;;;;40.20;28.85;;;24.10;46.30;;;;;;5068249;28;20032;-62
2022/03/24 10:56:14;;;;;;;37.33;28.23;;;24.50;45.90;;;;;;5069088;28;20330;-63
2022/03/24 10:58:47;;;;;;;39.00;29.65;;;25.20;44.90;;;;;;5064422;28;20024;-60
2022/03/24 11:01:17;;;;;;;37.08;26.95;;;25.90;44.90;;;;;;5066271;28;20493;-61
2022/03/24 11:03:44;;;;;;;35.92;27.25;;;26.70;44.20;;;;;;5070645;28;20039;-61
2022/03/24 11:06:17;;;;;;;39.15;28.50;;;25.90;43.30;;;;;;5077122;28;20023;-60
2022/03/24 11:08:50;;;;;;;36.05;27.55;;;25.60;44.30;;;;;;5074575;28;20054;-60
2022/03/24 11:11:16;;;;;;;35.30;26.58;;;25.80;43.70;;;;;;5073218;28;20148;-60
2022/03/24 11:13:57;;;;;;;33.85;26.42;;;25.50;43.40;;;;;;5072847;28;20100;-60
2022/03/24 11:16:25;;;;;;;36.90;28.25;;;24.90;43.70;;;;;;5072737;28;20477;-60
2022/03/24 11:18:53;;;;;;;37.85;26.67;;;25.10;43.30;;;;;;5074579;28;20040;-60
2022/03/24 11:21:33;;;;;;;39.22;26.77;;;25.30;42.70;;;;;;5069725;28;20423;-61
2022/03/24 11:24:00;;;;;;;40.47;27.48;;;25.60;43.20;;;;;;5073770;28;20219;-60
2022/03/24 11:26:26;;;;;;;44.22;28.40;;;25.60;43.20;;;;;;5074233;28;20309;-61
2022/03/24 11:28:56;;;;;;;42.72;28.15;;;25.60;43.50;;;;;;5080588;28;20032;-60
2022/03/24 11:31:31;;;;;;;42.65;28.30;;;25.60;43.70;;;;;;5072556;28;20127;-59
2022/03/24 11:34:00;;;;;;;42.72;27.02;;;25.90;43.10;;;;;;5075369;28;20129;-60
2022/03/24 11:36:28;;;;;;;42.88;27.75;;;26.00;43.00;;;;;;5078042;28;20401;-60
2022/03/24 11:38:56;;;;;;;40.50;26.58;;;25.80;44.10;;;;;;5074168;28;20496;-60
2022/03/24 11:41:37;;;;;;;38.38;26.33;;;25.90;43.00;;;;;;5067548;28;20020;-60
2022/03/24 11:44:25;;;;;;;41.15;26.35;;;26.80;42.70;;;;;;5073821;28;20485;-60
2022/03/24 11:46:58;;;;;;;39.70;25.88;;;26.30;42.20;;;;;;5058370;28;20071;-59
2022/03/24 11:49:29;;;;;;;43.47;26.20;;;25.80;42.50;;;;;;5071788;28;20536;-60
2022/03/24 11:51:57;;;;;;;45.80;26.65;;;25.20;43.30;;;;;;5074667;28;20685;-60
2022/03/24 11:54:38;;;;;;;37.17;25.77;;;25.60;42.70;;;;;;5075812;28;20017;-61
2022/03/24 11:57:21;;;;;;;35.58;24.73;;;26.20;41.90;;;;;;5074920;28;20240;-61
2022/03/24 11:59:49;;;;;;;38.50;25.15;;;26.50;41.30;;;;;;5078623;28;20745;-61
2022/03/24 12:02:19;;;;;;;37.97;24.23;;;27.10;40.50;;;;;;5078262;28;20474;-61
2022/03/24 12:04:50;;;;;;;38.13;23.98;;;25.60;41.40;;;;;;5075130;28;20037;-61
2022/03/24 12:07:18;;;;;;;39.53;23.88;;;25.80;42.00;;;;;;5075351;28;20049;-61
2022/03/24 12:10:04;;;;;;;33.38;23.27;;;25.70;41.30;;;;;;5078701;28;20110;-63
2022/03/24 12:12:30;;;;;;;35.45;23.35;;;26.10;40.50;;;;;;5073958;28;20484;-62
2022/03/24 12:14:58;;;;;;;34.25;22.42;;;26.50;40.20;;;;;;5065233;28;20436;-62
2022/03/24 12:17:31;;;;;;;31.08;22.60;;;26.00;40.30;;;;;;5072411;28;20024;-61
2022/03/24 12:19:58;;;;;;;33.70;23.15;;;26.10;39.40;;;;;;5074055;28;20117;-58
2022/03/24 12:22:28;;;;;;;33.00;23.13;;;25.90;40.30;;;;;;5075034;28;20028;-58
2022/03/24 12:25:00;;;;;;;31.73;22.10;;;25.60;40.70;;;;;;5070601;28;20032;-57
2022/03/24 12:27:59;;;;;;;28.45;20.67;;;25.70;40.30;;;;;;5068027;28;20046;-56
2022/03/24 12:30:26;;;;;;;32.95;22.38;;;25.80;38.70;;;;;;5075439;28;20477;-55
2022/03/24 12:33:12;;;;;;;28.73;21.83;;;25.80;39.60;;;;;;5071922;28;20631;-59
2022/03/24 12:35:56;;;;;;;28.02;20.60;;;25.80;39.40;;;;;;5073250;28;20025;-59
2022/03/24 12:38:32;;;;;;;30.73;20.70;;;26.10;38.90;;;;;;5072790;28;20040;-59
2022/03/24 12:41:07;;;;;;;32.90;21.13;;;26.30;38.00;;;;;;5075341;28;20040;-59